Time;durP1;ratioP1;P1;durP2;ratioP2;P2;SDS_P1;SDS_P2;PMS_P1;PMS_P2;Temp;Humidity;BMP_temperature;BMP_pressure;BME280_temperature;BME280_humidity;BME280_pressure;Samples;Min_cycle;Max_cycle;Signal;HPM_P1;HPM_P2
2023/03/24 00:01:38;;;;;;;;;6.75;2.75;;;;;;;;5058648;28;61824;-83
2023/03/24 00:04:03;;;;;;;;;2.25;2.25;;;;;;;;5063092;28;63969;-83
2023/03/24 00:06:35;;;;;;;;;3.25;2.00;;;;;;;;5063848;28;61799;-83
2023/03/24 00:09:02;;;;;;;;;7.00;2.00;;;;;;;;5063197;28;62189;-83
2023/03/24 00:11:28;;;;;;;;;4.00;2.00;;;;;;;;5064422;28;61953;-83
2023/03/24 00:13:57;;;;;;;;;2.00;2.00;;;;;;;;5046099;28;63601;-84
2023/03/24 00:16:23;;;;;;;;;2.75;2.75;;;;;;;;5046465;28;62125;-83
2023/03/24 00:18:51;;;;;;;;;3.75;3.00;;;;;;;;5046555;28;61716;-83
2023/03/24 00:21:20;;;;;;;;;3.00;3.00;;;;;;;;5046506;28;61795;-83
2023/03/24 00:23:46;;;;;;;;;2.75;2.75;;;;;;;;5045521;28;64614;-84
2023/03/24 00:26:14;;;;;;;;;3.00;1.75;;;;;;;;5046287;28;61890;-84
2023/03/24 00:28:41;;;;;;;;;3.00;3.00;;;;;;;;5046164;28;62107;-83
2023/03/24 00:31:07;;;;;;;;;3.00;2.00;;;;;;;;5046573;28;61838;-82
2023/03/24 00:33:33;;;;;;;;;4.50;3.00;;;;;;;;5044535;28;63767;-82
2023/03/24 00:35:59;;;;;;;;;4.25;2.75;;;;;;;;5064574;28;61885;-83
2023/03/24 00:38:25;;;;;;;;;1.50;1.50;;;;;;;;5045717;28;62154;-83
2023/03/24 00:40:50;;;;;;;;;4.00;2.00;;;;;;;;5046549;28;62056;-84
2023/03/24 00:43:16;;;;;;;;;2.75;2.75;;;;;;;;5043728;28;63776;-82
2023/03/24 00:45:47;;;;;;;;;2.00;2.00;;;;;;;;5044127;28;61994;-84
2023/03/24 00:48:13;;;;;;;;;1.75;1.75;;;;;;;;5026016;28;62045;-83
2023/03/24 00:50:38;;;;;;;;;1.50;1.50;;;;;;;;5026271;28;61790;-83
2023/03/24 00:53:03;;;;;;;;;1.00;1.00;;;;;;;;5025391;28;63558;-83
2023/03/24 00:55:29;;;;;;;;;2.00;2.00;;;;;;;;5026067;28;62001;-83
2023/03/24 00:57:54;;;;;;;;;3.75;2.75;;;;;;;;5043745;28;62102;-84
2023/03/24 01:00:22;;;;;;;;;2.00;2.00;;;;;;;;5043954;28;61917;-83
2023/03/24 01:02:52;;;;;;;;;3.00;2.00;;;;;;;;5025418;28;64053;-83
2023/03/24 01:05:19;;;;;;;;;1.75;0.00;;;;;;;;5025884;28;61974;-83
2023/03/24 01:07:44;;;;;;;;;2.00;1.00;;;;;;;;5025951;28;62248;-83
2023/03/24 01:10:11;;;;;;;;;3.00;1.25;;;;;;;;5043805;28;61915;-84
2023/03/24 01:12:37;;;;;;;;;1.00;1.00;;;;;;;;5043129;28;62052;-84
2023/03/24 01:15:04;;;;;;;;;1.00;1.00;;;;;;;;5025736;28;61778;-83
2023/03/24 01:17:30;;;;;;;;;1.00;1.00;;;;;;;;5025585;28;62078;-84
2023/03/24 01:19:56;;;;;;;;;1.00;1.00;;;;;;;;5043904;28;62058;-83
2023/03/24 01:22:22;;;;;;;;;5.25;1.00;;;;;;;;5024609;28;63568;-84
2023/03/24 01:24:48;;;;;;;;;0.75;0.75;;;;;;;;5043543;28;62030;-84
2023/03/24 01:27:13;;;;;;;;;1.50;1.00;;;;;;;;5043466;28;61887;-83
2023/03/24 01:29:39;;;;;;;;;1.00;1.00;;;;;;;;5025368;28;62002;-84
2023/03/24 01:32:05;;;;;;;;;1.00;1.00;;;;;;;;5042949;28;62249;-83
2023/03/24 01:34:31;;;;;;;;;1.00;1.00;;;;;;;;5043355;28;61995;-84
2023/03/24 01:36:56;;;;;;;;;2.25;2.00;;;;;;;;5043217;28;62016;-83
2023/03/24 01:39:21;;;;;;;;;2.75;1.75;;;;;;;;5043361;28;62137;-83
2023/03/24 01:41:47;;;;;;;;;1.00;1.00;;;;;;;;5042292;28;62268;-82
2023/03/24 01:44:29;;;;;;;;;1.00;1.00;;;;;;;;5024664;28;62106;-83
2023/03/24 01:46:55;;;;;;;;;0.25;0.25;;;;;;;;5025336;28;61939;-83
2023/03/24 01:49:21;;;;;;;;;0.25;0.00;;;;;;;;5025450;28;61804;-84
2023/03/24 01:51:49;;;;;;;;;0.00;0.00;;;;;;;;5024318;28;63630;-84
2023/03/24 01:54:19;;;;;;;;;2.00;1.00;;;;;;;;5043243;28;61881;-83
2023/03/24 01:56:47;;;;;;;;;0.50;0.50;;;;;;;;5024890;28;61877;-83
2023/03/24 01:59:16;;;;;;;;;2.00;0.50;;;;;;;;5042879;28;62060;-82
2023/03/24 02:01:42;;;;;;;;;3.00;1.00;;;;;;;;5049049;28;64875;-83
2023/03/24 02:04:08;;;;;;;;;0.00;0.00;;;;;;;;5063176;28;61934;-83
2023/03/24 02:06:35;;;;;;;;;0.00;0.00;;;;;;;;5061244;28;61848;-83
2023/03/24 02:09:01;;;;;;;;;1.00;0.00;;;;;;;;5063149;28;61785;-83
2023/03/24 02:11:28;;;;;;;;;0.00;0.00;;;;;;;;5060671;28;63800;-83
2023/03/24 02:13:54;;;;;;;;;0.00;0.00;;;;;;;;5034144;28;61940;-84
2023/03/24 02:16:32;;;;;;;;;0.00;0.00;;;;;;;;5024578;28;61893;-84
2023/03/24 02:19:11;;;;;;;;;1.00;0.00;;;;;;;;5042851;28;61786;-82
2023/03/24 02:21:57;;;;;;;;;3.25;0.25;;;;;;;;5024038;28;64488;-82
2023/03/24 02:24:29;;;;;;;;;0.75;0.00;;;;;;;;5042426;28;61860;-83
2023/03/24 02:27:02;;;;;;;;;1.75;0.75;;;;;;;;5024187;28;62135;-83
2023/03/24 02:29:41;;;;;;;;;1.00;0.50;;;;;;;;5042297;28;61860;-83
2023/03/24 02:32:25;;;;;;;;;1.00;1.00;;;;;;;;5042096;28;61957;-83
2023/03/24 02:35:09;;;;;;;;;1.00;1.00;;;;;;;;5042017;28;62178;-83
2023/03/24 02:37:34;;;;;;;;;2.75;1.25;;;;;;;;5042466;28;62038;-82
2023/03/24 02:40:15;;;;;;;;;0.00;0.00;;;;;;;;5024546;28;62177;-84
2023/03/24 02:42:40;;;;;;;;;0.00;0.00;;;;;;;;5023432;28;65108;-83
2023/03/24 02:45:06;;;;;;;;;0.75;0.00;;;;;;;;5042144;28;61795;-83
2023/03/24 02:47:46;;;;;;;;;0.50;0.50;;;;;;;;5024188;28;61732;-84
2023/03/24 02:50:26;;;;;;;;;0.75;0.75;;;;;;;;5042234;28;62026;-84
2023/03/24 02:52:58;;;;;;;;;0.00;0.00;;;;;;;;5041634;28;62723;-84
2023/03/24 02:55:31;;;;;;;;;0.50;0.00;;;;;;;;5041377;28;61648;-84
2023/03/24 02:58:10;;;;;;;;;0.00;0.00;;;;;;;;5041693;28;61705;-84
2023/03/24 03:00:45;;;;;;;;;0.25;0.00;;;;;;;;5030419;28;61920;-84
2023/03/24 03:03:15;;;;;;;;;0.00;0.00;;;;;;;;5061703;28;62121;-83
2023/03/24 03:05:40;;;;;;;;;0.00;0.00;;;;;;;;5060796;28;62010;-83
2023/03/24 03:08:08;;;;;;;;;2.75;0.00;;;;;;;;5060872;28;61700;-82
2023/03/24 03:10:36;;;;;;;;;0.50;0.00;;;;;;;;5061196;28;61820;-83
2023/03/24 03:13:05;;;;;;;;;0.00;0.00;;;;;;;;5059723;28;63734;-83
2023/03/24 03:15:36;;;;;;;;;0.00;0.00;;;;;;;;5060854;28;62233;-83
2023/03/24 03:18:08;;;;;;;;;0.00;0.00;;;;;;;;5060379;28;61831;-82
2023/03/24 03:20:37;;;;;;;;;1.50;0.00;;;;;;;;5062295;28;61722;-82
2023/03/24 03:23:05;;;;;;;;;0.50;0.50;;;;;;;;5059793;28;63875;-82
2023/03/24 03:25:34;;;;;;;;;4.50;1.00;;;;;;;;5060534;28;61914;-82
2023/03/24 03:28:02;;;;;;;;;0.00;0.00;;;;;;;;5061634;28;61754;-83
2023/03/24 03:30:32;;;;;;;;;0.25;0.25;;;;;;;;5061898;28;61999;-83
2023/03/24 03:33:12;;;;;;;;;0.00;0.00;;;;;;;;5059830;28;63740;-83
2023/03/24 03:35:41;;;;;;;;;0.00;0.00;;;;;;;;5060626;28;61780;-83
2023/03/24 03:38:25;;;;;;;;;0.00;0.00;;;;;;;;5041686;28;61841;-83
2023/03/24 03:40:51;;;;;;;;;0.75;0.75;;;;;;;;5028284;28;62173;-83
2023/03/24 03:43:16;;;;;;;;;0.00;0.00;;;;;;;;5042826;28;63519;-83
2023/03/24 03:45:42;;;;;;;;;3.00;0.00;;;;;;;;5061916;28;62123;-83
2023/03/24 03:48:07;;;;;;;;;1.00;1.00;;;;;;;;5043186;28;61924;-83
2023/03/24 03:50:33;;;;;;;;;1.00;0.00;;;;;;;;5043852;28;62105;-83
2023/03/24 03:53:00;;;;;;;;;0.00;0.00;;;;;;;;5042926;28;64673;-83
2023/03/24 03:55:25;;;;;;;;;0.00;0.00;;;;;;;;5061599;28;61755;-83
2023/03/24 03:57:51;;;;;;;;;0.00;0.00;;;;;;;;5061502;28;61833;-83
2023/03/24 04:00:21;;;;;;;;;6.50;0.00;;;;;;;;5061015;28;62061;-83
2023/03/24 04:02:46;;;;;;;;;1.75;0.25;;;;;;;;5042675;28;63762;-83
2023/03/24 04:05:24;;;;;;;;;1.00;0.00;;;;;;;;5042951;28;61987;-83
2023/03/24 04:08:05;;;;;;;;;3.75;0.00;;;;;;;;5045601;28;61760;-83
2023/03/24 04:10:33;;;;;;;;;0.00;0.00;;;;;;;;5065016;28;61786;-83
2023/03/24 04:12:59;;;;;;;;;1.00;0.00;;;;;;;;5045794;28;64016;-84
2023/03/24 04:15:34;;;;;;;;;1.00;0.00;;;;;;;;5046584;28;61950;-83
2023/03/24 04:18:10;;;;;;;;;0.00;0.00;;;;;;;;5065057;28;61946;-83
2023/03/24 04:20:45;;;;;;;;;1.00;0.00;;;;;;;;5064903;28;61732;-83
2023/03/24 04:23:13;;;;;;;;;0.50;0.00;;;;;;;;5045953;28;63975;-83
2023/03/24 04:25:57;;;;;;;;;0.00;0.00;;;;;;;;5064664;28;61848;-83
2023/03/24 04:28:29;;;;;;;;;1.00;0.00;;;;;;;;5064341;28;61915;-83
2023/03/24 04:31:07;;;;;;;;;0.00;0.00;;;;;;;;5046216;28;61829;-83
2023/03/24 04:33:39;;;;;;;;;0.50;0.00;;;;;;;;5064041;28;63247;-83
2023/03/24 04:36:17;;;;;;;;;1.25;0.00;;;;;;;;5046221;28;61871;-83
2023/03/24 04:38:44;;;;;;;;;0.00;0.00;;;;;;;;5064700;28;61902;-83
2023/03/24 04:41:10;;;;;;;;;2.50;0.25;;;;;;;;5064619;28;61922;-83
2023/03/24 04:43:36;;;;;;;;;0.00;0.00;;;;;;;;5063539;28;62721;-83
2023/03/24 04:46:03;;;;;;;;;0.00;0.00;;;;;;;;5064194;28;61802;-83
2023/03/24 04:48:28;;;;;;;;;2.00;0.00;;;;;;;;5046109;28;61774;-83
2023/03/24 04:50:59;;;;;;;;;2.00;0.00;;;;;;;;5039398;28;61959;-83
2023/03/24 04:53:24;;;;;;;;;0.25;0.25;;;;;;;;5043306;28;62099;-83
2023/03/24 04:55:49;;;;;;;;;0.00;0.00;;;;;;;;5026048;28;61812;-83
2023/03/24 04:58:18;;;;;;;;;0.50;0.00;;;;;;;;5025704;28;62216;-83
2023/03/24 05:00:43;;;;;;;;;0.00;0.00;;;;;;;;5033974;28;61977;-83
2023/03/24 05:03:12;;;;;;;;;1.50;0.50;;;;;;;;5062291;28;63502;-83
2023/03/24 05:05:38;;;;;;;;;0.75;0.25;;;;;;;;5062784;28;61938;-83
2023/03/24 05:08:03;;;;;;;;;1.00;1.00;;;;;;;;5064148;28;61790;-83
2023/03/24 05:10:28;;;;;;;;;1.00;1.00;;;;;;;;5062621;28;61783;-83
2023/03/24 05:12:54;;;;;;;;;0.00;0.00;;;;;;;;5032119;28;64940;-83
2023/03/24 05:15:19;;;;;;;;;1.00;0.00;;;;;;;;5043610;28;61856;-83
2023/03/24 05:17:45;;;;;;;;;1.00;0.00;;;;;;;;5025963;28;62129;-83
2023/03/24 05:20:10;;;;;;;;;0.00;0.00;;;;;;;;5024842;28;61863;-83
2023/03/24 05:22:36;;;;;;;;;0.75;0.00;;;;;;;;5025236;28;63713;-83
2023/03/24 05:25:02;;;;;;;;;0.00;0.00;;;;;;;;5025702;28;61861;-83
2023/03/24 05:27:27;;;;;;;;;1.50;1.00;;;;;;;;5043108;28;62000;-83
2023/03/24 05:29:52;;;;;;;;;2.75;0.00;;;;;;;;5043272;28;61645;-83
2023/03/24 05:32:18;;;;;;;;;0.50;0.00;;;;;;;;5042826;28;61932;-83
2023/03/24 05:34:43;;;;;;;;;1.25;0.25;;;;;;;;5043601;28;61899;-84
2023/03/24 05:37:11;;;;;;;;;1.50;0.75;;;;;;;;5025428;28;61721;-84
2023/03/24 05:39:37;;;;;;;;;1.50;1.00;;;;;;;;5025399;28;62072;-83
2023/03/24 05:42:02;;;;;;;;;2.00;0.50;;;;;;;;5042498;28;61777;-82
2023/03/24 05:44:27;;;;;;;;;1.00;0.00;;;;;;;;5042911;28;61963;-84
2023/03/24 05:46:53;;;;;;;;;0.00;0.00;;;;;;;;5025420;28;62008;-83
2023/03/24 05:49:18;;;;;;;;;0.00;0.00;;;;;;;;5043319;28;61953;-83
2023/03/24 05:51:43;;;;;;;;;3.00;0.75;;;;;;;;5042608;28;61824;-84
2023/03/24 05:54:08;;;;;;;;;1.00;1.00;;;;;;;;5043083;28;62405;-83
2023/03/24 05:56:34;;;;;;;;;4.00;0.00;;;;;;;;5043038;28;61834;-84
2023/03/24 05:58:59;;;;;;;;;0.50;0.50;;;;;;;;5024730;28;62328;-80
2023/03/24 06:01:25;;;;;;;;;0.75;0.75;;;;;;;;5054109;28;62577;-81
2023/03/24 06:03:50;;;;;;;;;1.00;0.00;;;;;;;;5062999;28;62043;-80
2023/03/24 06:06:19;;;;;;;;;0.50;0.50;;;;;;;;5058960;28;61918;-81
2023/03/24 06:08:46;;;;;;;;;1.50;0.00;;;;;;;;5064674;28;61629;-82
2023/03/24 06:11:11;;;;;;;;;1.00;0.75;;;;;;;;5044377;28;63774;-81
2023/03/24 06:13:37;;;;;;;;;0.00;0.00;;;;;;;;5044340;28;62041;-79
2023/03/24 06:16:02;;;;;;;;;2.00;1.00;;;;;;;;5043233;28;61755;-80
2023/03/24 06:18:29;;;;;;;;;1.50;1.00;;;;;;;;5025135;28;62297;-81
2023/03/24 06:20:57;;;;;;;;;3.25;0.50;;;;;;;;5024192;28;63857;-81
2023/03/24 06:23:24;;;;;;;;;0.00;0.00;;;;;;;;5037547;28;61881;-81
2023/03/24 06:25:50;;;;;;;;;4.00;0.00;;;;;;;;5049846;28;62028;-80
2023/03/24 06:28:15;;;;;;;;;1.75;0.25;;;;;;;;5057693;28;62101;-80
2023/03/24 06:30:45;;;;;;;;;0.50;0.00;;;;;;;;5061786;28;61953;-81
2023/03/24 06:33:11;;;;;;;;;0.50;0.00;;;;;;;;5062899;28;61941;-81
2023/03/24 06:35:36;;;;;;;;;3.00;1.00;;;;;;;;5044025;28;61935;-80
2023/03/24 06:38:01;;;;;;;;;0.00;0.00;;;;;;;;5062943;28;62074;-82
2023/03/24 06:40:27;;;;;;;;;2.75;1.00;;;;;;;;5034795;28;63531;-82
2023/03/24 06:42:52;;;;;;;;;2.50;0.00;;;;;;;;5035578;28;62526;-80
2023/03/24 06:45:18;;;;;;;;;0.00;0.00;;;;;;;;5029580;28;61955;-80
2023/03/24 06:47:43;;;;;;;;;3.75;1.00;;;;;;;;5030398;28;62067;-79
2023/03/24 06:50:09;;;;;;;;;1.00;0.00;;;;;;;;5040275;28;63671;-80
2023/03/24 06:52:34;;;;;;;;;2.25;0.00;;;;;;;;5062421;28;61789;-80
2023/03/24 06:55:00;;;;;;;;;1.00;1.00;;;;;;;;5062179;28;61771;-79
2023/03/24 06:57:26;;;;;;;;;1.50;0.00;;;;;;;;5061832;28;61726;-80
2023/03/24 06:59:51;;;;;;;;;0.75;0.75;;;;;;;;5061484;28;61867;-80
2023/03/24 07:02:17;;;;;;;;;2.25;0.00;;;;;;;;5044359;28;61752;-79
2023/03/24 07:04:42;;;;;;;;;4.00;1.00;;;;;;;;5041921;28;62368;-82
2023/03/24 07:07:08;;;;;;;;;0.00;0.00;;;;;;;;5032853;28;61922;-80
2023/03/24 07:09:33;;;;;;;;;1.00;1.00;;;;;;;;5060685;28;61890;-81
2023/03/24 07:11:58;;;;;;;;;1.00;0.00;;;;;;;;5061586;28;61787;-82
2023/03/24 07:14:26;;;;;;;;;0.50;0.50;;;;;;;;5026406;28;61949;-82
2023/03/24 07:16:52;;;;;;;;;2.00;1.00;;;;;;;;5062879;28;61956;-82
2023/03/24 07:19:17;;;;;;;;;0.00;0.00;;;;;;;;5062551;28;61667;-82
2023/03/24 07:21:43;;;;;;;;;0.00;0.00;;;;;;;;5063191;28;61675;-82
2023/03/24 07:24:08;;;;;;;;;1.00;0.00;;;;;;;;5061491;28;61940;-84
2023/03/24 07:26:33;;;;;;;;;0.00;0.00;;;;;;;;5045824;28;61940;-84
2023/03/24 07:28:59;;;;;;;;;2.00;1.00;;;;;;;;5042841;28;63702;-84
2023/03/24 07:31:24;;;;;;;;;2.00;2.00;;;;;;;;5028650;28;61998;-85
2023/03/24 07:33:49;;;;;;;;;3.50;0.75;;;;;;;;5041946;28;61999;-80
2023/03/24 07:36:15;;;;;;;;;2.25;0.00;;;;;;;;5023815;28;62705;-81
2023/03/24 07:38:41;;;;;;;;;0.00;0.00;;;;;;;;5040327;28;62796;-80
2023/03/24 07:41:06;;;;;;;;;3.00;0.00;;;;;;;;5049373;28;61870;-80
2023/03/24 07:43:31;;;;;;;;;2.00;0.00;;;;;;;;5034753;28;62063;-80
2023/03/24 07:45:56;;;;;;;;;5.25;1.00;;;;;;;;5029531;28;61998;-80
2023/03/24 07:48:22;;;;;;;;;1.00;0.00;;;;;;;;5025339;28;64891;-80
2023/03/24 07:50:47;;;;;;;;;0.75;0.00;;;;;;;;5025062;28;61953;-80
2023/03/24 07:53:17;;;;;;;;;0.00;0.00;;;;;;;;5026494;28;61776;-80
2023/03/24 07:55:42;;;;;;;;;2.75;0.75;;;;;;;;5026308;28;62197;-80
2023/03/24 07:58:07;;;;;;;;;0.00;0.00;;;;;;;;5041991;28;65044;-81
2023/03/24 08:00:33;;;;;;;;;0.25;0.00;;;;;;;;5047351;28;61734;-80
2023/03/24 08:03:02;;;;;;;;;0.50;0.50;;;;;;;;5063160;28;61821;-81
2023/03/24 08:05:28;;;;;;;;;1.00;1.00;;;;;;;;5063503;28;61810;-81
2023/03/24 08:07:54;;;;;;;;;4.00;0.00;;;;;;;;5046929;28;63782;-81
2023/03/24 08:10:27;;;;;;;;;1.75;1.00;;;;;;;;5042608;28;61811;-81
2023/03/24 08:12:53;;;;;;;;;0.50;0.00;;;;;;;;5042786;28;61884;-80
2023/03/24 08:15:18;;;;;;;;;2.50;1.00;;;;;;;;5044245;28;61795;-80
2023/03/24 08:17:44;;;;;;;;;2.00;0.00;;;;;;;;5042284;28;65043;-80
2023/03/24 08:20:13;;;;;;;;;2.75;0.25;;;;;;;;5042483;28;62113;-80
2023/03/24 08:22:39;;;;;;;;;2.00;1.00;;;;;;;;5043795;28;61825;-80
2023/03/24 08:25:05;;;;;;;;;2.00;0.75;;;;;;;;5043928;28;62361;-80
2023/03/24 08:27:31;;;;;;;;;0.00;0.00;;;;;;;;5041408;28;63680;-81
2023/03/24 08:29:56;;;;;;;;;1.50;1.50;;;;;;;;5043671;28;61895;-80
2023/03/24 08:32:21;;;;;;;;;4.25;1.00;;;;;;;;5041872;28;61851;-80
2023/03/24 08:34:46;;;;;;;;;0.00;0.00;;;;;;;;5042334;28;62144;-80
2023/03/24 08:37:12;;;;;;;;;3.75;2.00;;;;;;;;5042725;28;62060;-80
2023/03/24 08:39:37;;;;;;;;;2.50;1.00;;;;;;;;5041410;28;62002;-80
2023/03/24 08:42:02;;;;;;;;;2.75;0.75;;;;;;;;5058847;28;61995;-81
2023/03/24 08:44:28;;;;;;;;;2.00;0.50;;;;;;;;5045214;28;62295;-81
2023/03/24 08:46:53;;;;;;;;;3.00;0.75;;;;;;;;5044673;28;64640;-81
2023/03/24 08:49:19;;;;;;;;;1.25;1.00;;;;;;;;5063301;28;61798;-80
2023/03/24 08:57:22;;;;;;;;;1.75;1.00;;;;;;;;4822545;28;63560;-89
2023/03/24 08:59:47;;;;;;;;;0.00;0.00;;;;;;;;5024199;28;61896;-87
2023/03/24 09:02:13;;;;;;;;;1.50;0.50;;;;;;;;5024201;28;62603;-86
2023/03/24 09:04:38;;;;;;;;;1.50;0.50;;;;;;;;5042326;28;61957;-86
2023/03/24 09:07:03;;;;;;;;;1.00;1.00;;;;;;;;5041907;28;63026;-86
2023/03/24 09:09:29;;;;;;;;;2.75;1.00;;;;;;;;5041810;28;61853;-86
2023/03/24 09:11:54;;;;;;;;;0.75;0.75;;;;;;;;5042460;28;61775;-86
2023/03/24 09:14:21;;;;;;;;;0.75;0.75;;;;;;;;5043165;28;62037;-86
2023/03/24 09:16:47;;;;;;;;;0.00;0.00;;;;;;;;5011397;28;63876;-86
2023/03/24 09:19:12;;;;;;;;;0.00;0.00;;;;;;;;5004756;28;61827;-84
2023/03/24 09:21:38;;;;;;;;;2.00;1.00;;;;;;;;5004864;28;61744;-86
2023/03/24 09:24:09;;;;;;;;;2.00;0.00;;;;;;;;5005196;28;61739;-86
2023/03/24 09:26:51;;;;;;;;;0.00;0.00;;;;;;;;5003221;28;63330;-86
2023/03/24 09:29:21;;;;;;;;;1.00;0.25;;;;;;;;5012544;28;62109;-85
2023/03/24 09:31:46;;;;;;;;;1.75;0.00;;;;;;;;5040339;28;61824;-86
2023/03/24 09:34:12;;;;;;;;;1.75;0.00;;;;;;;;5005828;28;61767;-86
2023/03/24 09:36:37;;;;;;;;;2.25;1.25;;;;;;;;5004513;28;64011;-87
2023/03/24 09:39:02;;;;;;;;;1.50;0.00;;;;;;;;5019336;28;62074;-87
2023/03/24 09:41:29;;;;;;;;;1.75;1.00;;;;;;;;5024706;28;61798;-85
2023/03/24 09:44:06;;;;;;;;;3.00;0.00;;;;;;;;5018459;28;62200;-86
2023/03/24 09:46:41;;;;;;;;;0.75;0.00;;;;;;;;5022558;28;62097;-85
2023/03/24 09:49:10;;;;;;;;;0.75;0.75;;;;;;;;5005159;28;61653;-85
2023/03/24 09:51:41;;;;;;;;;2.75;1.25;;;;;;;;5041686;28;61777;-86
2023/03/24 09:54:06;;;;;;;;;0.50;0.00;;;;;;;;5043589;28;61870;-85
2023/03/24 09:56:34;;;;;;;;;1.75;0.50;;;;;;;;5037256;28;63636;-86
2023/03/24 09:59:06;;;;;;;;;3.00;0.00;;;;;;;;5024350;28;62104;-86
2023/03/24 10:01:33;;;;;;;;;3.00;0.50;;;;;;;;5005501;28;61791;-87
2023/03/24 10:03:59;;;;;;;;;1.50;0.00;;;;;;;;5009761;28;61890;-86
2023/03/24 10:06:25;;;;;;;;;1.50;0.00;;;;;;;;5007655;28;63852;-89
2023/03/24 10:09:08;;;;;;;;;0.00;0.00;;;;;;;;5005117;28;62251;-86
2023/03/24 10:11:53;;;;;;;;;2.75;1.25;;;;;;;;5028386;28;61843;-86
2023/03/24 10:14:43;;;;;;;;;1.00;0.00;;;;;;;;4994371;28;61977;-86
2023/03/24 10:17:24;;;;;;;;;1.00;0.00;;;;;;;;5029201;28;61917;-86
2023/03/24 10:19:57;;;;;;;;;1.00;0.00;;;;;;;;5005054;28;61768;-86
2023/03/24 10:22:41;;;;;;;;;1.50;0.00;;;;;;;;5005502;28;61839;-88
2023/03/24 10:25:15;;;;;;;;;0.50;0.00;;;;;;;;5022442;28;62208;-87
2023/03/24 10:27:45;;;;;;;;;4.00;0.00;;;;;;;;5004134;28;63440;-88
2023/03/24 10:30:16;;;;;;;;;0.00;0.00;;;;;;;;5022547;28;61988;-86
2023/03/24 10:32:42;;;;;;;;;2.00;1.00;;;;;;;;5011644;28;61754;-86
2023/03/24 10:35:14;;;;;;;;;1.75;1.00;;;;;;;;5042543;28;61863;-88
2023/03/24 10:37:39;;;;;;;;;0.00;0.00;;;;;;;;5024579;28;65000;-86
2023/03/24 10:40:16;;;;;;;;;1.75;0.00;;;;;;;;5041765;28;61895;-87
2023/03/24 10:42:44;;;;;;;;;1.50;1.00;;;;;;;;5024675;28;62015;-89
2023/03/24 10:45:25;;;;;;;;;4.25;2.00;;;;;;;;5024791;28;61721;-87
2023/03/24 10:47:52;;;;;;;;;0.75;0.00;;;;;;;;5041660;28;62017;-87
2023/03/24 10:50:23;;;;;;;;;0.00;0.00;;;;;;;;5024401;28;61776;-87
2023/03/24 10:52:49;;;;;;;;;0.00;0.00;;;;;;;;5040955;28;61972;-87
2023/03/24 10:55:17;;;;;;;;;2.00;1.00;;;;;;;;5027016;28;61928;-87
2023/03/24 10:57:44;;;;;;;;;2.75;0.00;;;;;;;;5003571;28;63660;-87
2023/03/24 11:00:18;;;;;;;;;2.00;0.00;;;;;;;;5035727;28;61695;-88
2023/03/24 11:02:51;;;;;;;;;1.00;0.50;;;;;;;;5042266;28;62020;-88
2023/03/24 11:05:21;;;;;;;;;0.00;0.00;;;;;;;;5028782;28;61964;-88
2023/03/24 11:07:47;;;;;;;;;0.25;0.25;;;;;;;;5041567;28;62146;-88
2023/03/24 11:10:19;;;;;;;;;3.50;1.00;;;;;;;;5024067;28;61770;-88
2023/03/24 11:12:53;;;;;;;;;3.00;0.50;;;;;;;;5024049;28;61972;-86
2023/03/24 11:15:22;;;;;;;;;2.25;1.50;;;;;;;;5043498;28;61767;-85
2023/03/24 11:17:55;;;;;;;;;3.33;0.67;;;;;;;;5038682;28;63333;-86
2023/03/24 11:20:39;;;;;;;;;2.00;1.00;;;;;;;;5045438;28;61996;-87
2023/03/24 11:23:18;;;;;;;;;2.50;0.25;;;;;;;;5027036;28;62211;-86
2023/03/24 11:25:48;;;;;;;;;1.00;0.00;;;;;;;;5027676;28;61846;-87
2023/03/24 11:28:15;;;;;;;;;3.00;1.75;;;;;;;;5047780;28;61843;-87
2023/03/24 11:30:44;;;;;;;;;0.00;0.00;;;;;;;;5045704;28;62064;-86
2023/03/24 11:33:17;;;;;;;;;1.00;1.00;;;;;;;;5024499;28;61801;-86
2023/03/24 11:35:42;;;;;;;;;0.33;0.33;;;;;;;;5028259;28;62192;-87
2023/03/24 11:38:24;;;;;;;;;3.00;1.00;;;;;;;;5032001;28;62769;-86
2023/03/24 11:41:00;;;;;;;;;1.75;0.00;;;;;;;;5025182;28;61870;-86
2023/03/24 11:43:26;;;;;;;;;0.50;0.00;;;;;;;;5035676;28;61801;-87
2023/03/24 11:46:12;;;;;;;;;0.75;0.50;;;;;;;;5021454;28;61948;-86
2023/03/24 11:48:49;;;;;;;;;2.25;0.00;;;;;;;;5039377;28;62943;-88
2023/03/24 11:51:18;;;;;;;;;2.25;0.50;;;;;;;;5007210;28;62009;-90
2023/03/24 11:53:46;;;;;;;;;0.50;0.50;;;;;;;;5007456;28;62174;-91
2023/03/24 11:56:20;;;;;;;;;0.00;0.00;;;;;;;;5007237;28;61954;-89
2023/03/24 11:58:57;;;;;;;;;0.75;0.75;;;;;;;;5012513;28;64313;-86
2023/03/24 12:01:27;;;;;;;;;0.50;0.50;;;;;;;;5029175;28;62104;-88
2023/03/24 12:03:52;;;;;;;;;1.33;1.33;;;;;;;;5027378;28;61752;-90
2023/03/24 12:06:32;;;;;;;;;2.33;0.00;;;;;;;;5026567;28;61832;-88
2023/03/24 12:08:58;;;;;;;;;1.33;0.00;;;;;;;;5044859;28;62853;-90
2023/03/24 12:11:32;;;;;;;;;1.00;1.00;;;;;;;;5044361;28;61745;-89
2023/03/24 12:14:00;;;;;;;;;0.00;0.00;;;;;;;;5046570;28;61766;-89
2023/03/24 12:16:32;;;;;;;;;0.00;0.00;;;;;;;;5047757;28;62139;-88
2023/03/24 12:19:03;;;;;;;;;2.00;0.50;;;;;;;;5046192;28;62073;-89
2023/03/24 12:21:34;;;;;;;;;1.00;0.00;;;;;;;;5040907;28;61947;-87
2023/03/24 12:24:05;;;;;;;;;2.00;0.00;;;;;;;;5039130;28;61807;-90
2023/03/24 12:26:35;;;;;;;;;0.00;0.00;;;;;;;;5020494;28;62135;-88
2023/03/24 12:29:22;;;;;;;;;0.00;0.00;;;;;;;;5017827;28;62261;-88
2023/03/24 12:31:55;;;;;;;;;0.00;0.00;;;;;;;;5037456;28;61840;-86
2023/03/24 12:34:50;;;;;;;;;0.00;0.00;;;;;;;;5039388;28;61918;-88
2023/03/24 12:37:34;;;;;;;;;0.00;0.00;;;;;;;;5045978;28;61735;-90
2023/03/24 12:40:08;;;;;;;;;0.00;0.00;;;;;;;;5042561;28;63571;-88
2023/03/24 12:42:44;;;;;;;;;0.00;0.00;;;;;;;;5037956;28;61904;-89
2023/03/24 12:45:17;;;;;;;;;0.00;0.00;;;;;;;;5019034;28;61692;-85
2023/03/24 12:47:51;;;;;;;;;0.00;0.00;;;;;;;;5032646;28;61928;-86
2023/03/24 12:50:23;;;;;;;;;0.00;0.00;;;;;;;;5026084;28;64331;-87
2023/03/24 12:53:05;;;;;;;;;2.33;0.00;;;;;;;;5031716;28;62535;-86
2023/03/24 12:55:35;;;;;;;;;0.00;0.00;;;;;;;;5040616;28;61901;-85
2023/03/24 12:58:35;;;;;;;;;2.67;0.00;;;;;;;;5015713;28;61835;-88
2023/03/24 13:01:14;;;;;;;;;0.75;0.75;;;;;;;;5004364;28;63578;-85
2023/03/24 13:03:49;;;;;;;;;0.00;0.00;;;;;;;;5031501;28;61853;-85
2023/03/24 13:06:28;;;;;;;;;1.25;0.25;;;;;;;;5018246;28;61869;-83
2023/03/24 13:09:02;;;;;;;;;0.25;0.25;;;;;;;;5016062;28;61756;-86
2023/03/24 13:14:42;;;;;;;;;0.33;0.33;;;;;;;;5031476;28;61967;-88
2023/03/24 13:17:17;;;;;;;;;5.00;1.00;;;;;;;;5012860;28;61884;-87
2023/03/24 13:19:48;;;;;;;;;0.67;0.00;;;;;;;;5028942;28;61928;-88
2023/03/24 13:22:17;;;;;;;;;0.00;0.00;;;;;;;;5011060;28;63132;-86
2023/03/24 13:24:44;;;;;;;;;0.00;0.00;;;;;;;;5007518;28;62028;-86
2023/03/24 13:27:32;;;;;;;;;0.00;0.00;;;;;;;;5015941;28;62336;-86
2023/03/24 13:30:12;;;;;;;;;1.00;0.00;;;;;;;;5034137;28;61847;-85
2023/03/24 13:32:43;;;;;;;;;0.00;0.00;;;;;;;;5034831;28;63576;-84
2023/03/24 13:35:28;;;;;;;;;0.33;0.00;;;;;;;;5017250;28;63212;-87
2023/03/24 13:38:03;;;;;;;;;0.00;0.00;;;;;;;;5036045;28;62119;-85
2023/03/24 13:40:31;;;;;;;;;0.00;0.00;;;;;;;;5032855;28;61906;-86
2023/03/24 13:43:17;;;;;;;;;1.50;0.00;;;;;;;;5028265;28;62194;-86
2023/03/24 13:45:49;;;;;;;;;0.67;0.00;;;;;;;;5026761;28;61962;-86
2023/03/24 13:48:29;;;;;;;;;0.33;0.00;;;;;;;;5034611;28;62109;-87
2023/03/24 13:51:07;;;;;;;;;0.00;0.00;;;;;;;;5039573;28;61967;-87
2023/03/24 13:53:44;;;;;;;;;0.00;0.00;;;;;;;;5029483;28;62773;-86
2023/03/24 13:56:24;;;;;;;;;0.67;0.00;;;;;;;;5013793;28;61846;-85
2023/03/24 13:58:54;;;;;;;;;2.67;0.00;;;;;;;;5010485;28;61874;-86
2023/03/24 14:01:40;;;;;;;;;0.00;0.00;;;;;;;;5015843;28;61855;-87
2023/03/24 14:04:18;;;;;;;;;0.00;0.00;;;;;;;;5012882;28;63580;-87
2023/03/24 14:06:51;;;;;;;;;0.00;0.00;;;;;;;;5012727;28;61837;-87
2023/03/24 14:09:20;;;;;;;;;1.00;0.00;;;;;;;;5028402;28;61853;-87
2023/03/24 14:12:09;;;;;;;;;0.33;0.00;;;;;;;;5003496;28;62487;-87
2023/03/24 14:14:58;;;;;;;;;1.00;0.00;;;;;;;;5007984;28;63526;-88
2023/03/24 14:17:24;;;;;;;;;0.67;0.00;;;;;;;;4999015;28;62307;-87
2023/03/24 14:19:55;;;;;;;;;0.00;0.00;;;;;;;;5002577;28;61719;-87
2023/03/24 14:22:32;;;;;;;;;0.33;0.00;;;;;;;;5010073;28;61879;-86
2023/03/24 14:25:00;;;;;;;;;0.00;0.00;;;;;;;;5010894;28;62772;-87
2023/03/24 14:27:33;;;;;;;;;0.00;0.00;;;;;;;;5012661;28;62073;-88
2023/03/24 14:30:11;;;;;;;;;0.00;0.00;;;;;;;;5015285;28;62244;-86
2023/03/24 14:32:39;;;;;;;;;1.00;0.00;;;;;;;;5035134;28;61917;-86
2023/03/24 14:35:19;;;;;;;;;1.00;0.00;;;;;;;;5009772;28;63366;-86
2023/03/24 14:37:57;;;;;;;;;0.00;0.00;;;;;;;;5011885;28;61911;-87
2023/03/24 14:40:31;;;;;;;;;0.00;0.00;;;;;;;;5031053;28;61739;-85
2023/03/24 14:43:01;;;;;;;;;0.00;0.00;;;;;;;;5010585;28;62551;-85
2023/03/24 14:45:36;;;;;;;;;0.00;0.00;;;;;;;;5010136;28;61984;-86
2023/03/24 14:48:02;;;;;;;;;0.00;0.00;;;;;;;;5033413;28;61963;-87
2023/03/24 14:50:27;;;;;;;;;0.00;0.00;;;;;;;;5010888;28;62071;-86
2023/03/24 14:53:02;;;;;;;;;4.33;0.33;;;;;;;;5011044;28;62079;-87
2023/03/24 14:55:29;;;;;;;;;0.00;0.00;;;;;;;;5006297;28;61893;-85
2023/03/24 14:57:59;;;;;;;;;0.00;0.00;;;;;;;;5007702;28;61984;-86
2023/03/24 15:00:25;;;;;;;;;0.00;0.00;;;;;;;;5010660;28;61909;-85
2023/03/24 15:02:51;;;;;;;;;0.00;0.00;;;;;;;;5019178;28;61676;-84
2023/03/24 15:05:29;;;;;;;;;2.67;0.00;;;;;;;;5018399;28;64589;-84
2023/03/24 15:08:17;;;;;;;;;0.00;0.00;;;;;;;;5034397;28;62116;-85